createdAt,value
2017-08-21T00:02:02.748Z,17.40
2017-08-21T00:04:37.293Z,17.40
2017-08-21T00:07:11.882Z,17.30
2017-08-21T00:09:46.406Z,17.30
2017-08-21T00:12:20.985Z,17.30
2017-08-21T00:14:55.581Z,17.30
2017-08-21T00:17:30.122Z,17.30
2017-08-21T00:20:04.738Z,17.30
2017-08-21T00:22:39.397Z,17.30
2017-08-21T00:28:12.452Z,17.30
2017-08-21T00:30:48.474Z,17.30
2017-08-21T00:33:23.102Z,17.20
2017-08-21T00:35:57.733Z,17.20
2017-08-21T00:38:32.322Z,17.30
2017-08-21T00:41:06.861Z,17.20
2017-08-21T00:43:41.466Z,17.20
2017-08-21T00:46:16.001Z,17.20
2017-08-21T00:48:50.570Z,17.20
2017-08-21T00:51:25.143Z,17.20
2017-08-21T00:53:59.561Z,17.10
2017-08-21T00:56:34.125Z,17.10
2017-08-21T00:59:08.757Z,17.10
2017-08-21T01:01:43.234Z,17.10
2017-08-21T01:04:17.654Z,17.10
2017-08-21T01:06:52.297Z,17.10
2017-08-21T01:09:26.902Z,17.10
2017-08-21T01:12:01.462Z,17.10
2017-08-21T01:14:36.042Z,17.00
2017-08-21T01:17:10.543Z,17.00
2017-08-21T01:19:45.141Z,17.00
2017-08-21T01:22:19.713Z,17.00
2017-08-21T01:24:54.260Z,17.00
2017-08-21T01:27:28.866Z,17.00
2017-08-21T01:30:03.422Z,17.00
2017-08-21T01:32:45.945Z,17.00
2017-08-21T01:35:30.981Z,17.00
2017-08-21T01:38:05.471Z,17.00
2017-08-21T01:40:40.049Z,17.00
2017-08-21T01:43:14.594Z,17.00
2017-08-21T01:45:49.186Z,17.00
2017-08-21T01:48:23.750Z,17.00
2017-08-21T01:50:58.346Z,17.00
2017-08-21T01:53:32.610Z,16.90
2017-08-21T01:56:07.274Z,16.90
2017-08-21T01:58:41.782Z,16.90
2017-08-21T02:01:16.337Z,16.90
2017-08-21T02:03:50.942Z,16.70
2017-08-21T02:06:25.493Z,16.70
2017-08-21T02:08:59.992Z,16.60
2017-08-21T02:11:34.558Z,16.60
2017-08-21T02:14:09.142Z,16.60
2017-08-21T02:16:43.782Z,16.60
2017-08-21T02:19:18.352Z,16.60
2017-08-21T02:21:52.941Z,16.50
2017-08-21T02:24:27.349Z,16.50
2017-08-21T02:27:01.953Z,16.50
2017-08-21T02:29:36.744Z,16.50
2017-08-21T02:32:11.234Z,16.50
2017-08-21T02:34:45.853Z,16.50
2017-08-21T02:37:20.402Z,16.50
2017-08-21T02:39:54.985Z,16.40
2017-08-21T02:42:29.563Z,16.40
2017-08-21T02:45:04.100Z,16.40
2017-08-21T02:47:39.327Z,16.40
2017-08-21T02:50:34.382Z,16.40
2017-08-21T02:53:09.002Z,16.30
2017-08-21T02:55:43.545Z,16.30
2017-08-21T02:58:18.067Z,16.30
2017-08-21T03:00:52.620Z,16.30
2017-08-21T03:03:27.404Z,16.30
2017-08-21T03:06:01.893Z,16.30
2017-08-21T03:08:36.498Z,16.30
2017-08-21T03:11:11.087Z,16.30
2017-08-21T03:13:45.648Z,16.20
2017-08-21T03:16:20.234Z,16.20
2017-08-21T03:18:54.811Z,16.20
2017-08-21T03:21:29.419Z,16.20
2017-08-21T03:24:03.883Z,16.20
2017-08-21T03:26:38.490Z,16.10
2017-08-21T03:29:13.094Z,16.10
2017-08-21T03:31:47.638Z,16.10
2017-08-21T03:34:22.138Z,16.10
2017-08-21T03:36:56.719Z,16.10
2017-08-21T03:39:31.267Z,16.10
2017-08-21T03:42:05.847Z,16.00
2017-08-21T03:44:40.458Z,16.00
2017-08-21T03:47:14.993Z,16.00
2017-08-21T03:49:49.594Z,16.00
2017-08-21T03:52:24.145Z,16.00
2017-08-21T03:54:58.862Z,16.00
2017-08-21T03:57:33.448Z,16.00
2017-08-21T04:00:10.926Z,16.00
2017-08-21T04:02:51.900Z,16.00
2017-08-21T04:05:27.698Z,16.00
2017-08-21T04:08:02.253Z,16.00
2017-08-21T04:10:41.526Z,16.00
2017-08-21T04:13:16.001Z,16.00
2017-08-21T04:15:50.542Z,16.10
2017-08-21T04:18:25.055Z,16.10
2017-08-21T04:21:12.380Z,16.10
2017-08-21T04:23:46.854Z,16.20
2017-08-21T04:26:21.469Z,16.20
2017-08-21T04:28:56.086Z,16.30
2017-08-21T04:31:30.847Z,16.40
2017-08-21T04:34:05.426Z,16.40
2017-08-21T04:36:40.017Z,16.50
2017-08-21T04:39:14.724Z,16.50
2017-08-21T04:41:49.269Z,16.60
2017-08-21T04:44:23.791Z,16.70
2017-08-21T04:46:58.315Z,16.70
2017-08-21T04:49:32.814Z,16.70
2017-08-21T04:52:07.397Z,16.80
2017-08-21T04:54:41.911Z,16.80
2017-08-21T04:57:16.526Z,16.80
2017-08-21T04:59:51.209Z,16.90
2017-08-21T05:02:25.851Z,16.90
2017-08-21T05:05:00.498Z,16.90
2017-08-21T05:07:35.026Z,16.90
2017-08-21T05:12:59.474Z,16.90
2017-08-21T05:15:34.098Z,17.00
2017-08-21T05:18:08.659Z,17.10
2017-08-21T05:20:43.174Z,17.10
2017-08-21T05:23:17.740Z,16.60
2017-08-21T05:25:52.366Z,17.20
2017-08-21T05:28:26.925Z,17.30
2017-08-21T05:31:01.426Z,17.40
2017-08-21T05:33:35.950Z,17.50
2017-08-21T05:36:10.521Z,17.60
2017-08-21T05:38:44.957Z,17.60
2017-08-21T05:41:19.573Z,17.70
2017-08-21T05:43:54.033Z,17.70
2017-08-21T05:46:28.638Z,17.80
2017-08-21T05:49:03.194Z,17.80
2017-08-21T05:51:37.759Z,18.00
2017-08-21T05:54:12.342Z,18.00
2017-08-21T05:56:46.885Z,18.10
2017-08-21T05:59:21.362Z,18.20
2017-08-21T06:01:56.021Z,18.20
2017-08-21T06:04:30.593Z,18.30
2017-08-21T06:07:05.190Z,18.30
2017-08-21T06:09:39.615Z,18.50
2017-08-21T06:12:14.200Z,18.50
2017-08-21T06:14:48.822Z,18.60
2017-08-21T06:17:23.387Z,18.80
2017-08-21T06:19:57.857Z,18.90
2017-08-21T06:22:32.406Z,19.00
2017-08-21T06:25:15.608Z,19.20
2017-08-21T06:27:50.138Z,19.30
2017-08-21T06:30:24.746Z,19.50
2017-08-21T06:32:59.354Z,19.50
2017-08-21T06:35:33.914Z,19.60
2017-08-21T06:38:08.401Z,19.70
2017-08-21T06:40:42.978Z,19.50
2017-08-21T06:43:17.474Z,19.40
2017-08-21T06:45:52.008Z,19.40
2017-08-21T06:48:26.665Z,19.50
2017-08-21T06:51:01.210Z,19.60
2017-08-21T06:53:35.705Z,19.90
2017-08-21T06:56:10.256Z,19.90
2017-08-21T06:58:44.746Z,20.10
2017-08-21T07:01:19.317Z,20.20
2017-08-21T07:03:53.962Z,20.30
2017-08-21T07:06:28.562Z,20.20
2017-08-21T07:09:02.870Z,20.40
2017-08-21T07:11:37.281Z,20.30
2017-08-21T07:14:11.833Z,20.40
2017-08-21T07:16:46.452Z,20.30
2017-08-21T07:19:20.945Z,20.30
2017-08-21T07:21:55.806Z,20.40
2017-08-21T07:24:30.350Z,20.40
2017-08-21T07:27:04.922Z,20.40
2017-08-21T07:29:39.365Z,20.50
2017-08-21T07:32:13.930Z,20.50
2017-08-21T07:34:48.354Z,20.70
2017-08-21T07:37:22.938Z,20.70
2017-08-21T07:39:57.558Z,20.90
2017-08-21T07:42:32.105Z,21.20
2017-08-21T07:45:15.875Z,21.20
2017-08-21T07:47:50.455Z,21.50
2017-08-21T07:50:25.026Z,21.70
2017-08-21T07:52:59.449Z,22.00
2017-08-21T07:55:34.060Z,22.20
2017-08-21T07:58:08.641Z,22.40
2017-08-21T08:00:43.193Z,22.50
2017-08-21T08:03:17.719Z,22.80
2017-08-21T08:05:52.253Z,22.90
2017-08-21T08:08:26.857Z,23.20
2017-08-21T08:11:01.428Z,23.70
2017-08-21T08:13:36.070Z,23.80
2017-08-21T08:16:10.717Z,23.90
2017-08-21T08:18:45.161Z,24.00
2017-08-21T08:21:19.683Z,24.20
2017-08-21T08:23:54.233Z,24.40
2017-08-21T08:26:28.889Z,24.50
2017-08-21T08:29:03.414Z,24.70
2017-08-21T08:31:37.958Z,25.00
2017-08-21T08:34:12.562Z,25.00
2017-08-21T08:36:47.070Z,25.10
2017-08-21T08:39:21.818Z,25.10
2017-08-21T08:41:56.513Z,25.50
2017-08-21T08:44:31.077Z,25.50
2017-08-21T08:47:05.622Z,25.70
2017-08-21T08:49:40.133Z,25.90
2017-08-21T08:52:14.661Z,26.30
2017-08-21T08:54:49.162Z,26.30
2017-08-21T08:57:23.697Z,26.40
2017-08-21T08:59:58.214Z,26.60
2017-08-21T09:02:32.790Z,26.80
2017-08-21T09:05:15.370Z,26.80
2017-08-21T09:07:49.985Z,26.80
2017-08-21T09:10:24.698Z,27.40
2017-08-21T09:12:59.177Z,27.40
2017-08-21T09:15:33.731Z,27.90
2017-08-21T09:18:08.286Z,28.30
2017-08-21T09:20:42.822Z,28.30
2017-08-21T09:23:17.381Z,28.60
2017-08-21T09:25:51.966Z,28.90
2017-08-21T09:28:26.626Z,28.80
2017-08-21T09:31:01.213Z,29.00
2017-08-21T09:33:35.770Z,29.20
2017-08-21T09:36:10.332Z,29.60
2017-08-21T09:38:44.885Z,29.60
2017-08-21T09:41:19.402Z,29.30
2017-08-21T09:43:53.914Z,29.20
2017-08-21T09:46:28.482Z,29.30
2017-08-21T09:49:03.058Z,29.50
2017-08-21T09:51:37.614Z,29.30
2017-08-21T09:54:12.106Z,29.30
2017-08-21T09:56:46.655Z,29.30
2017-08-21T09:59:21.072Z,29.40
2017-08-21T10:01:55.990Z,29.80
2017-08-21T10:04:30.537Z,29.90
2017-08-21T10:07:05.117Z,29.90
2017-08-21T10:09:39.647Z,29.80
2017-08-21T10:12:14.238Z,29.70
2017-08-21T10:14:48.822Z,29.60
2017-08-21T10:17:23.418Z,29.20
2017-08-21T10:19:58.042Z,29.10
2017-08-21T10:22:32.663Z,28.80
2017-08-21T10:25:15.542Z,29.10
2017-08-21T10:27:50.154Z,29.20
2017-08-21T10:30:24.729Z,29.30
2017-08-21T10:32:59.174Z,29.00
2017-08-21T10:35:33.741Z,29.30
2017-08-21T10:38:08.325Z,29.20
2017-08-21T10:40:42.877Z,29.50
2017-08-21T10:43:17.425Z,29.40
2017-08-21T10:45:53.143Z,29.60
2017-08-21T10:48:27.689Z,29.70
2017-08-21T10:51:02.289Z,30.30
2017-08-21T10:53:36.819Z,30.60
2017-08-21T10:56:11.442Z,30.70
2017-08-21T10:58:45.978Z,30.30
2017-08-21T11:01:20.524Z,30.40
2017-08-21T11:03:55.199Z,30.70
2017-08-21T11:06:29.795Z,30.80
2017-08-21T11:09:03.685Z,30.70
2017-08-21T11:11:38.109Z,30.80
2017-08-21T11:14:12.559Z,31.10
2017-08-21T11:16:47.129Z,31.10
2017-08-21T11:19:21.702Z,31.30
2017-08-21T11:21:56.261Z,31.10
2017-08-21T11:24:30.856Z,31.20
2017-08-21T11:27:05.397Z,31.20
2017-08-21T11:29:40.049Z,31.50
2017-08-21T11:32:14.554Z,31.80
2017-08-21T11:34:49.066Z,31.60
2017-08-21T11:37:23.707Z,31.70
2017-08-21T11:39:58.254Z,31.30
2017-08-21T11:42:32.949Z,31.30
2017-08-21T11:47:49.060Z,31.30
2017-08-21T11:50:30.410Z,31.10
2017-08-21T11:53:05.350Z,31.00
2017-08-21T11:55:39.891Z,30.80
2017-08-21T11:58:14.102Z,30.90
2017-08-21T12:00:48.554Z,31.40
2017-08-21T12:03:23.030Z,31.50
2017-08-21T12:05:57.602Z,31.70
2017-08-21T12:08:32.218Z,31.50
2017-08-21T12:11:06.786Z,31.40
2017-08-21T12:13:41.257Z,31.60
2017-08-21T12:16:15.906Z,31.60
2017-08-21T12:18:50.402Z,31.30
2017-08-21T12:21:24.991Z,31.20
2017-08-21T12:23:59.486Z,31.00
2017-08-21T12:26:34.093Z,31.20
2017-08-21T12:29:08.727Z,30.80
2017-08-21T12:31:43.285Z,30.70
2017-08-21T12:34:17.910Z,30.70
2017-08-21T12:36:52.454Z,30.30
2017-08-21T12:39:27.019Z,30.30
2017-08-21T12:42:01.540Z,30.40
2017-08-21T12:44:35.983Z,30.50
2017-08-21T12:47:10.614Z,30.40
2017-08-21T12:49:45.152Z,30.40
2017-08-21T12:52:19.658Z,30.00
2017-08-21T12:54:54.110Z,29.70
2017-08-21T12:57:28.655Z,29.50
2017-08-21T13:00:03.150Z,29.10
2017-08-21T13:02:37.822Z,28.70
2017-08-21T13:05:29.554Z,28.60
2017-08-21T13:08:04.243Z,28.40
2017-08-21T13:10:38.757Z,28.30
2017-08-21T13:13:13.289Z,28.10
2017-08-21T13:15:47.842Z,28.10
2017-08-21T13:18:22.444Z,28.00
2017-08-21T13:20:57.092Z,28.10
2017-08-21T13:23:31.606Z,28.10
2017-08-21T13:26:06.113Z,27.80
2017-08-21T13:28:40.615Z,27.80
2017-08-21T13:31:15.154Z,27.90
2017-08-21T13:33:49.718Z,27.90
2017-08-21T13:36:24.341Z,27.90
2017-08-21T13:38:59.001Z,27.80
2017-08-21T13:41:33.502Z,27.80
2017-08-21T13:44:08.063Z,27.60
2017-08-21T13:46:42.538Z,27.50
2017-08-21T13:49:17.001Z,27.40
2017-08-21T13:51:51.650Z,27.10
2017-08-21T13:54:26.231Z,26.80
2017-08-21T13:57:00.742Z,26.30
2017-08-21T13:59:35.384Z,26.00
2017-08-21T14:02:10.026Z,25.70
2017-08-21T14:04:44.358Z,25.50
2017-08-21T14:07:18.966Z,25.40
2017-08-21T14:09:53.530Z,25.50
2017-08-21T14:12:28.129Z,25.80
2017-08-21T14:15:02.582Z,25.90
2017-08-21T14:17:37.115Z,26.10
2017-08-21T14:20:19.298Z,25.80
2017-08-21T14:22:53.822Z,25.80
2017-08-21T14:25:28.410Z,26.00
2017-08-21T14:28:02.992Z,26.00
2017-08-21T14:30:37.710Z,25.90
2017-08-21T14:33:11.931Z,25.90
2017-08-21T14:35:46.615Z,25.90
2017-08-21T14:38:21.163Z,25.80
2017-08-21T14:40:55.734Z,25.50
2017-08-21T14:43:30.434Z,25.40
2017-08-21T14:46:04.994Z,25.10
2017-08-21T14:48:39.442Z,25.10
2017-08-21T14:51:14.034Z,25.10
2017-08-21T14:53:48.682Z,25.00
2017-08-21T14:56:23.193Z,24.80
2017-08-21T14:58:57.617Z,24.60
2017-08-21T15:01:32.270Z,24.60
2017-08-21T15:04:06.902Z,24.50
2017-08-21T15:06:41.333Z,24.40
2017-08-21T15:09:15.881Z,24.10
2017-08-21T15:11:50.142Z,24.10
2017-08-21T15:14:24.646Z,24.10
2017-08-21T15:16:59.198Z,24.20
2017-08-21T15:19:33.746Z,24.10
2017-08-21T15:22:08.382Z,24.00
2017-08-21T15:24:42.710Z,23.80
2017-08-21T15:27:17.266Z,23.70
2017-08-21T15:29:51.830Z,23.60
2017-08-21T15:32:26.530Z,23.50
2017-08-21T15:35:01.086Z,23.30
2017-08-21T15:37:35.665Z,23.30
2017-08-21T15:40:15.258Z,23.40
2017-08-21T15:42:49.799Z,23.20
2017-08-21T15:45:24.544Z,23.20
2017-08-21T15:47:59.183Z,23.10
2017-08-21T15:50:33.750Z,23.10
2017-08-21T15:53:08.205Z,23.10
2017-08-21T15:55:42.750Z,23.10
2017-08-21T15:58:17.194Z,23.10
2017-08-21T16:00:51.737Z,23.00
2017-08-21T16:03:26.598Z,23.00
2017-08-21T16:06:01.036Z,23.00
2017-08-21T16:08:35.628Z,23.00
2017-08-21T16:11:10.199Z,23.00
2017-08-21T16:13:44.828Z,22.90
2017-08-21T16:16:19.410Z,22.80
2017-08-21T16:18:53.850Z,22.80
2017-08-21T16:21:28.462Z,22.80
2017-08-21T16:24:02.942Z,22.80
2017-08-21T16:26:37.502Z,22.70
2017-08-21T16:29:12.003Z,22.60
2017-08-21T16:31:46.378Z,22.50
2017-08-21T16:34:20.933Z,22.40
2017-08-21T16:36:55.288Z,22.30
2017-08-21T16:39:29.762Z,22.30
2017-08-21T16:42:04.093Z,22.20
2017-08-21T16:44:38.670Z,22.10
2017-08-21T16:47:13.214Z,22.10
2017-08-21T16:49:47.936Z,22.10
2017-08-21T16:52:22.618Z,22.10
2017-08-21T16:54:57.150Z,22.00
2017-08-21T16:57:31.713Z,22.00
2017-08-21T17:00:16.000Z,21.90
2017-08-21T17:02:50.636Z,21.90
2017-08-21T17:05:25.154Z,21.80
2017-08-21T17:07:59.752Z,21.70
2017-08-21T17:10:34.359Z,21.60
2017-08-21T17:13:08.818Z,21.60
2017-08-21T17:15:43.445Z,21.60
2017-08-21T17:18:17.914Z,21.50
2017-08-21T17:20:52.569Z,21.50
2017-08-21T17:23:27.188Z,21.40
2017-08-21T17:26:01.811Z,21.40
2017-08-21T17:28:36.470Z,21.30
2017-08-21T17:31:11.209Z,21.30
2017-08-21T17:33:45.761Z,21.30
2017-08-21T17:36:20.496Z,21.30
2017-08-21T17:38:54.950Z,21.30
2017-08-21T17:41:29.609Z,21.30
2017-08-21T17:44:04.092Z,21.30
2017-08-21T17:46:39.331Z,21.20
2017-08-21T17:49:13.970Z,21.20
2017-08-21T17:51:49.201Z,21.10
2017-08-21T17:54:23.730Z,21.10
2017-08-21T17:56:58.371Z,21.00
2017-08-21T17:59:32.904Z,20.90
2017-08-21T18:02:07.531Z,20.80
2017-08-21T18:04:42.193Z,20.80
2017-08-21T18:07:17.507Z,20.60
2017-08-21T18:09:51.918Z,20.60
2017-08-21T18:12:26.467Z,20.50
2017-08-21T18:15:01.197Z,20.40
2017-08-21T18:17:35.867Z,20.40
2017-08-21T18:20:16.729Z,20.40
2017-08-21T18:22:51.287Z,20.30
2017-08-21T18:25:25.841Z,20.30
2017-08-21T18:28:00.493Z,20.00
2017-08-21T18:30:35.042Z,20.20
2017-08-21T18:33:09.642Z,20.10
2017-08-21T18:35:44.162Z,20.00
2017-08-21T18:38:18.854Z,20.00
2017-08-21T18:40:53.533Z,20.00
2017-08-21T18:46:11.874Z,19.90
2017-08-21T18:48:46.393Z,19.80
2017-08-21T18:51:20.995Z,19.80
2017-08-21T18:53:55.731Z,19.70
2017-08-21T18:56:30.349Z,19.70
2017-08-21T18:59:04.914Z,19.60
2017-08-21T19:01:39.517Z,19.60
2017-08-21T19:04:14.089Z,19.60
2017-08-21T19:06:48.677Z,19.60
2017-08-21T19:09:23.150Z,19.60
2017-08-21T19:11:58.167Z,19.60
2017-08-21T19:14:32.666Z,19.50
2017-08-21T19:17:07.294Z,19.50
2017-08-21T19:19:41.922Z,19.50
2017-08-21T19:22:16.482Z,19.50
2017-08-21T19:24:51.103Z,19.50
2017-08-21T19:27:25.742Z,19.50
2017-08-21T19:30:00.413Z,19.50
2017-08-21T19:32:34.477Z,19.50
2017-08-21T19:35:24.932Z,19.50
2017-08-21T19:38:00.106Z,19.40
2017-08-21T19:40:34.645Z,19.40
2017-08-21T19:43:09.099Z,19.40
2017-08-21T19:45:43.625Z,19.40
2017-08-21T19:48:18.177Z,19.40
2017-08-21T19:50:52.783Z,19.30
2017-08-21T19:53:27.582Z,19.30
2017-08-21T19:56:08.046Z,19.30
2017-08-21T19:58:42.594Z,19.30
2017-08-21T20:01:17.138Z,19.30
2017-08-21T20:03:51.653Z,19.30
2017-08-21T20:06:26.300Z,19.30
2017-08-21T20:09:00.853Z,19.20
2017-08-21T20:11:35.526Z,19.20
2017-08-21T20:14:10.154Z,19.20
2017-08-21T20:16:44.744Z,19.10
2017-08-21T20:19:19.186Z,19.00
2017-08-21T20:21:53.594Z,19.10
2017-08-21T20:24:28.118Z,19.00
2017-08-21T20:27:02.613Z,18.90
2017-08-21T20:29:37.283Z,18.90
2017-08-21T20:32:11.834Z,18.90
2017-08-21T20:34:46.431Z,18.80
2017-08-21T20:37:21.053Z,18.80
2017-08-21T20:39:55.534Z,18.70
2017-08-21T20:42:30.209Z,18.70
2017-08-21T20:45:04.686Z,18.60
2017-08-21T20:47:39.254Z,18.60
2017-08-21T20:53:05.993Z,18.60
2017-08-21T20:55:47.325Z,18.50
2017-08-21T20:58:21.885Z,18.50
2017-08-21T21:00:56.458Z,18.50
2017-08-21T21:03:31.030Z,18.50
2017-08-21T21:06:05.726Z,18.40
2017-08-21T21:08:40.286Z,18.40
2017-08-21T21:11:14.929Z,18.40
2017-08-21T21:13:49.466Z,18.40
2017-08-21T21:16:23.989Z,18.40
2017-08-21T21:18:58.618Z,18.30
2017-08-21T21:21:33.278Z,18.30
2017-08-21T21:24:07.982Z,18.20
2017-08-21T21:26:42.478Z,18.20
2017-08-21T21:29:16.987Z,18.20
2017-08-21T21:31:51.541Z,18.10
2017-08-21T21:34:25.958Z,18.10
2017-08-21T21:37:00.554Z,18.10
2017-08-21T21:39:35.102Z,18.10
2017-08-21T21:42:09.754Z,18.10
2017-08-21T21:44:44.390Z,18.00
2017-08-21T21:47:19.094Z,18.00
2017-08-21T21:49:53.754Z,18.00
2017-08-21T21:52:28.242Z,18.00
2017-08-21T21:55:02.738Z,18.00
2017-08-21T21:57:37.283Z,18.00
2017-08-21T22:02:57.658Z,17.90
2017-08-21T22:05:32.214Z,17.90
2017-08-21T22:08:06.731Z,17.90
2017-08-21T22:10:49.766Z,17.80
2017-08-21T22:13:24.277Z,17.80
2017-08-21T22:15:58.806Z,17.80
2017-08-21T22:18:33.389Z,17.80
2017-08-21T22:21:18.610Z,17.80
2017-08-21T22:23:53.118Z,17.70
2017-08-21T22:26:27.682Z,17.70
2017-08-21T22:29:02.253Z,17.60
2017-08-21T22:31:36.870Z,17.60
2017-08-21T22:34:11.433Z,17.60
2017-08-21T22:36:46.011Z,17.50
2017-08-21T22:39:20.424Z,17.50
2017-08-21T22:41:54.989Z,17.50
2017-08-21T22:44:29.413Z,17.40
2017-08-21T22:47:03.982Z,17.40
2017-08-21T22:49:38.558Z,17.40
2017-08-21T22:52:13.132Z,17.40
2017-08-21T22:54:47.610Z,17.30
2017-08-21T22:57:21.813Z,17.30
2017-08-21T22:59:56.374Z,17.30
2017-08-21T23:02:30.925Z,17.30
2017-08-21T23:05:05.557Z,17.20
2017-08-21T23:07:40.146Z,17.20
2017-08-21T23:10:27.548Z,17.10
2017-08-21T23:13:02.035Z,17.10
2017-08-21T23:15:36.606Z,17.10
2017-08-21T23:18:10.690Z,17.10
2017-08-21T23:20:45.220Z,17.00
2017-08-21T23:23:19.882Z,17.00
2017-08-21T23:25:54.426Z,17.00
2017-08-21T23:28:29.050Z,17.00
2017-08-21T23:31:03.617Z,17.00
2017-08-21T23:33:38.126Z,17.00
2017-08-21T23:36:12.649Z,16.90
2017-08-21T23:38:47.198Z,16.90
2017-08-21T23:41:21.738Z,16.90
2017-08-21T23:43:56.338Z,16.90
2017-08-21T23:46:30.917Z,16.90
2017-08-21T23:49:05.382Z,16.80
2017-08-21T23:51:39.934Z,16.80
2017-08-21T23:54:14.562Z,16.80
2017-08-21T23:56:49.098Z,16.80
2017-08-21T23:59:23.666Z,16.80
